Time;durP1;ratioP1;P1;durP2;ratioP2;P2;SDS_P1;SDS_P2;PMS_P1;PMS_P2;Temp;Humidity;BMP_temperature;BMP_pressure;BME280_temperature;BME280_humidity;BME280_pressure;Samples;Min_cycle;Max_cycle;Signal;HPM_P1;HPM_P2
2021/03/21 00:01:04;;;;;;;13.93;11.53;;;2.30;99.90;;;;;;5083724;28;20573;-77
2021/03/21 00:03:31;;;;;;;12.93;11.63;;;2.30;99.90;;;;;;5080597;28;20451;-77
2021/03/21 00:05:57;;;;;;;12.97;11.67;;;2.30;99.90;;;;;;5081071;28;20492;-77
2021/03/21 00:08:27;;;;;;;13.50;12.13;;;2.30;99.90;;;;;;5082248;28;20464;-77
2021/03/21 00:10:56;;;;;;;13.73;12.27;;;2.30;99.90;;;;;;5083526;28;20470;-77
2021/03/21 00:13:24;;;;;;;12.77;11.40;;;2.30;99.90;;;;;;5083174;28;20429;-77
2021/03/21 00:15:51;;;;;;;12.17;10.97;;;2.30;99.90;;;;;;5084626;28;20432;-76
2021/03/21 00:18:19;;;;;;;12.63;11.43;;;2.30;99.90;;;;;;5081340;28;20503;-77
2021/03/21 00:20:46;;;;;;;13.93;11.80;;;2.30;99.90;;;;;;5085375;28;20453;-76
2021/03/21 00:23:13;;;;;;;13.63;11.90;;;2.20;99.90;;;;;;5080657;28;20498;-77
2021/03/21 00:25:40;;;;;;;12.53;11.33;;;2.30;99.90;;;;;;5082298;28;20463;-77
2021/03/21 00:28:15;;;;;;;13.83;12.43;;;2.30;99.90;;;;;;5083230;28;20465;-77
2021/03/21 00:30:45;;;;;;;14.07;12.27;;;2.30;99.90;;;;;;5081622;28;20437;-77
2021/03/21 00:33:14;;;;;;;13.00;11.77;;;2.20;99.90;;;;;;5084281;28;20448;-77
2021/03/21 00:35:40;;;;;;;12.77;11.50;;;2.20;99.90;;;;;;5082543;28;20422;-77
2021/03/21 00:38:08;;;;;;;13.87;12.57;;;2.20;99.90;;;;;;5082014;28;20447;-77
2021/03/21 00:40:36;;;;;;;13.03;11.70;;;2.20;99.90;;;;;;5095318;22;20540;-76
2021/03/21 00:43:03;;;;;;;13.03;11.73;;;2.20;99.90;;;;;;5034427;28;20451;-78
2021/03/21 00:45:30;;;;;;;13.10;11.80;;;2.20;99.90;;;;;;5051963;28;20518;-78
2021/03/21 00:47:56;;;;;;;12.67;11.43;;;2.30;99.90;;;;;;5052598;28;20801;-78
2021/03/21 00:50:27;;;;;;;13.07;11.70;;;2.30;99.90;;;;;;5053472;28;20972;-77
2021/03/21 00:52:54;;;;;;;13.40;12.03;;;2.20;99.90;;;;;;5056826;28;20504;-78
2021/03/21 00:55:20;;;;;;;15.03;12.33;;;2.30;99.90;;;;;;5051710;28;20436;-78
2021/03/21 00:57:47;;;;;;;11.97;10.90;;;2.20;99.90;;;;;;5045761;28;20448;-78
2021/03/21 01:00:22;;;;;;;14.30;11.80;;;2.20;99.90;;;;;;5042456;28;20549;-78
2021/03/21 01:02:48;;;;;;;11.13;10.13;;;2.20;99.90;;;;;;5052358;28;20426;-78
2021/03/21 01:05:18;;;;;;;13.87;11.60;;;2.20;99.90;;;;;;5033775;28;20970;-78
2021/03/21 01:07:44;;;;;;;12.90;11.60;;;2.20;99.90;;;;;;5035688;28;20845;-78
2021/03/21 01:10:11;;;;;;;13.50;12.13;;;2.20;99.90;;;;;;5041818;28;20534;-78
2021/03/21 01:12:38;;;;;;;12.53;11.33;;;2.20;99.90;;;;;;5050706;28;20843;-78
2021/03/21 01:15:05;;;;;;;12.60;11.40;;;2.20;99.90;;;;;;5038384;28;20514;-77
2021/03/21 01:17:32;;;;;;;13.03;11.57;;;2.20;99.90;;;;;;5034857;28;21017;-78
2021/03/21 01:19:58;;;;;;;14.10;12.57;;;2.20;99.90;;;;;;5051886;28;20461;-78
2021/03/21 01:22:25;;;;;;;13.50;12.20;;;2.20;99.90;;;;;;5041979;28;21054;-78
2021/03/21 01:24:51;;;;;;;13.57;12.30;;;2.20;99.90;;;;;;5041862;28;20450;-77
2021/03/21 01:27:18;;;;;;;13.57;12.17;;;2.20;99.90;;;;;;5040233;28;20473;-77
2021/03/21 01:29:44;;;;;;;13.33;12.00;;;2.20;99.90;;;;;;5051847;28;20459;-78
2021/03/21 01:32:11;;;;;;;12.93;11.73;;;2.20;99.90;;;;;;5038930;28;20458;-78
2021/03/21 01:34:38;;;;;;;14.40;12.80;;;2.20;99.90;;;;;;5051522;28;20447;-78
2021/03/21 01:37:05;;;;;;;14.67;12.50;;;2.20;99.90;;;;;;5051534;28;20426;-77
2021/03/21 01:39:31;;;;;;;13.13;11.83;;;2.20;99.90;;;;;;5050163;28;20535;-78
2021/03/21 01:42:00;;;;;;;13.97;12.67;;;2.20;99.90;;;;;;5051652;28;20432;-77
2021/03/21 01:44:26;;;;;;;15.93;11.83;;;2.20;99.90;;;;;;5039544;28;20986;-78
2021/03/21 01:47:13;;;;;;;13.07;11.77;;;2.20;99.90;;;;;;5041581;28;20467;-77
2021/03/21 01:49:44;;;;;;;13.23;11.97;;;2.20;99.90;;;;;;5036675;28;20473;-78
2021/03/21 01:52:26;;;;;;;12.60;11.43;;;2.20;99.90;;;;;;5038998;28;20964;-78
2021/03/21 01:54:53;;;;;;;13.00;11.63;;;2.20;99.90;;;;;;5036483;28;20461;-78
2021/03/21 01:57:20;;;;;;;12.40;11.23;;;2.20;99.90;;;;;;5036541;28;20537;-78
2021/03/21 01:59:46;;;;;;;12.37;11.17;;;2.20;99.90;;;;;;5036880;28;20519;-78
2021/03/21 02:02:13;;;;;;;12.90;11.57;;;2.20;99.90;;;;;;5055756;28;20459;-78
2021/03/21 02:04:40;;;;;;;16.13;12.30;;;2.20;99.90;;;;;;5041589;28;20442;-77
2021/03/21 02:07:15;;;;;;;12.57;11.33;;;2.20;99.90;;;;;;5041725;28;21005;-78
2021/03/21 02:09:51;;;;;;;12.20;11.00;;;2.20;99.90;;;;;;5041717;28;20465;-77
2021/03/21 02:12:26;;;;;;;12.20;11.00;;;2.20;99.90;;;;;;5051226;28;20502;-78
2021/03/21 02:14:59;;;;;;;12.57;11.33;;;2.20;99.90;;;;;;5049774;28;20453;-78
2021/03/21 02:17:32;;;;;;;13.03;11.73;;;2.20;99.90;;;;;;5051573;28;20434;-78
2021/03/21 02:20:29;;;;;;;13.13;11.87;;;2.20;99.90;;;;;;5051625;28;20461;-77
2021/03/21 02:23:01;;;;;;;12.23;11.13;;;2.20;99.90;;;;;;5049844;28;20453;-77
2021/03/21 02:25:44;;;;;;;12.93;11.43;;;2.20;99.90;;;;;;5051136;28;20435;-77
2021/03/21 02:28:32;;;;;;;13.90;11.03;;;2.20;99.90;;;;;;5048262;28;20445;-78
2021/03/21 02:31:04;;;;;;;12.20;10.97;;;2.20;99.90;;;;;;5037070;28;20457;-78
2021/03/21 02:33:35;;;;;;;12.13;10.83;;;2.20;99.90;;;;;;5042076;28;20447;-78
2021/03/21 02:36:09;;;;;;;11.53;10.37;;;2.20;99.90;;;;;;5037828;28;20454;-78
2021/03/21 02:38:44;;;;;;;11.33;10.33;;;2.20;99.90;;;;;;5036901;28;20441;-78
2021/03/21 02:41:15;;;;;;;12.47;11.20;;;2.20;99.90;;;;;;5038378;28;20458;-78
2021/03/21 02:43:46;;;;;;;10.67;9.73;;;2.20;99.90;;;;;;5037299;28;20450;-77
2021/03/21 02:46:18;;;;;;;11.83;10.23;;;2.20;99.90;;;;;;5045056;28;20500;-78
2021/03/21 02:48:50;;;;;;;11.07;9.97;;;2.20;99.90;;;;;;5036323;28;20989;-78
2021/03/21 02:51:22;;;;;;;11.10;10.00;;;2.20;99.90;;;;;;5054588;28;20442;-79
2021/03/21 02:53:51;;;;;;;10.63;9.70;;;2.20;99.90;;;;;;5045028;28;20446;-78
2021/03/21 02:56:21;;;;;;;10.70;9.73;;;2.20;99.90;;;;;;5034641;28;20517;-77
2021/03/21 02:58:52;;;;;;;12.00;10.73;;;2.20;99.90;;;;;;5054826;28;20429;-78
2021/03/21 03:01:24;;;;;;;10.93;10.03;;;2.20;99.90;;;;;;5054351;28;20438;-78
2021/03/21 03:03:54;;;;;;;11.00;9.77;;;2.20;99.90;;;;;;5042430;28;21006;-78
2021/03/21 03:06:26;;;;;;;11.00;9.90;;;2.20;99.90;;;;;;5042508;28;20462;-77
2021/03/21 03:08:56;;;;;;;10.57;9.57;;;2.20;99.90;;;;;;5054183;28;20472;-78
2021/03/21 03:11:30;;;;;;;11.13;10.13;;;2.20;99.90;;;;;;5053534;28;20933;-78
2021/03/21 03:14:00;;;;;;;11.97;10.80;;;2.10;99.90;;;;;;5039624;28;20443;-77
2021/03/21 03:16:36;;;;;;;10.77;9.87;;;2.20;99.90;;;;;;5053887;28;20819;-78
2021/03/21 03:19:08;;;;;;;11.20;10.20;;;2.10;99.90;;;;;;5044510;28;21023;-78
2021/03/21 03:21:44;;;;;;;12.27;11.17;;;2.10;99.90;;;;;;5032119;28;20450;-77
2021/03/21 03:24:15;;;;;;;11.90;10.80;;;2.10;99.90;;;;;;5039309;28;20456;-78
2021/03/21 03:26:47;;;;;;;11.57;10.53;;;2.20;99.90;;;;;;5053850;28;20461;-78
2021/03/21 03:29:18;;;;;;;12.50;11.30;;;2.20;99.90;;;;;;5053934;28;20454;-78
2021/03/21 03:31:48;;;;;;;11.83;10.63;;;2.20;99.90;;;;;;5044878;28;20445;-78
2021/03/21 03:34:14;;;;;;;11.10;10.10;;;2.20;99.90;;;;;;5055114;28;20441;-77
2021/03/21 03:36:41;;;;;;;11.93;10.73;;;2.20;99.90;;;;;;5053996;28;20437;-77
2021/03/21 03:39:08;;;;;;;11.70;10.60;;;2.20;99.90;;;;;;5053478;28;20460;-78
2021/03/21 03:41:40;;;;;;;12.50;11.23;;;2.20;99.90;;;;;;5040561;28;20442;-78
2021/03/21 03:44:19;;;;;;;12.67;11.47;;;2.20;99.90;;;;;;5037125;28;20449;-77
2021/03/21 03:46:52;;;;;;;12.47;11.27;;;2.20;99.90;;;;;;5054645;28;20559;-78
2021/03/21 03:49:30;;;;;;;13.87;11.47;;;2.20;99.90;;;;;;5054107;28;20462;-77
2021/03/21 03:52:19;;;;;;;11.70;10.60;;;2.20;99.90;;;;;;5052510;28;20445;-78
2021/03/21 03:54:55;;;;;;;10.93;9.93;;;2.20;99.90;;;;;;5034801;28;20455;-78
2021/03/21 03:57:27;;;;;;;11.00;9.90;;;2.20;99.90;;;;;;5046450;28;20449;-78
2021/03/21 04:00:05;;;;;;;13.77;10.37;;;2.20;99.90;;;;;;5035741;28;20503;-78
2021/03/21 04:02:50;;;;;;;10.97;10.00;;;2.20;99.90;;;;;;5054402;28;20459;-78
2021/03/21 04:05:23;;;;;;;10.97;10.00;;;2.20;99.90;;;;;;5035191;28;20487;-80
2021/03/21 04:07:59;;;;;;;10.60;9.67;;;2.30;99.90;;;;;;5028859;28;20478;-78
2021/03/21 04:10:33;;;;;;;11.70;10.53;;;2.30;99.90;;;;;;5054182;28;20467;-78
2021/03/21 04:13:07;;;;;;;11.13;10.07;;;2.30;99.90;;;;;;5055255;28;20468;-79
2021/03/21 04:15:38;;;;;;;11.90;10.73;;;2.30;99.90;;;;;;5048186;28;20446;-78
2021/03/21 04:18:09;;;;;;;11.77;10.57;;;2.30;99.90;;;;;;5046030;28;20461;-79
2021/03/21 04:20:39;;;;;;;11.80;10.60;;;2.30;99.90;;;;;;5033595;28;20504;-78
2021/03/21 04:23:13;;;;;;;11.27;10.17;;;2.30;99.90;;;;;;5044591;28;20437;-78
2021/03/21 04:25:45;;;;;;;11.30;10.20;;;2.30;99.90;;;;;;5022279;28;20450;-79
2021/03/21 04:28:17;;;;;;;11.73;10.70;;;2.30;99.90;;;;;;5031855;28;20468;-78
2021/03/21 04:30:46;;;;;;;11.70;10.70;;;2.20;99.90;;;;;;5041516;28;20990;-78
2021/03/21 04:33:18;;;;;;;11.13;10.13;;;2.20;99.90;;;;;;5041410;28;21004;-77
2021/03/21 04:35:49;;;;;;;11.30;10.30;;;2.20;99.90;;;;;;5034285;28;20454;-78
2021/03/21 04:38:18;;;;;;;10.70;9.80;;;2.20;99.90;;;;;;5038348;28;20441;-78
2021/03/21 04:40:46;;;;;;;11.00;10.07;;;2.20;99.90;;;;;;5036982;28;20980;-77
2021/03/21 04:43:17;;;;;;;11.63;10.53;;;2.20;99.90;;;;;;5044996;28;20807;-78
2021/03/21 04:45:48;;;;;;;11.30;10.20;;;2.20;99.90;;;;;;5037470;28;20450;-78
2021/03/21 04:48:19;;;;;;;10.53;9.63;;;2.20;99.90;;;;;;5037534;28;20457;-78
2021/03/21 04:50:48;;;;;;;11.20;9.83;;;2.30;99.90;;;;;;5048206;28;20456;-78
2021/03/21 04:53:24;;;;;;;11.73;10.20;;;2.20;99.90;;;;;;5044434;28;20446;-78
2021/03/21 04:55:57;;;;;;;10.80;9.60;;;2.20;99.90;;;;;;5034526;28;20453;-78
2021/03/21 04:58:41;;;;;;;11.07;10.17;;;2.30;99.90;;;;;;5042327;28;21039;-78
2021/03/21 05:01:12;;;;;;;11.33;10.33;;;2.30;99.90;;;;;;5033994;28;20447;-77
2021/03/21 05:03:43;;;;;;;11.47;10.47;;;2.30;99.90;;;;;;5040132;28;20947;-77
2021/03/21 05:06:15;;;;;;;11.00;10.00;;;2.30;99.90;;;;;;5038843;28;20524;-77
2021/03/21 05:08:51;;;;;;;10.57;9.67;;;2.30;99.90;;;;;;5035884;28;20447;-78
2021/03/21 05:11:19;;;;;;;11.63;10.53;;;2.30;99.90;;;;;;5035049;28;20502;-77
2021/03/21 05:13:52;;;;;;;11.30;10.30;;;2.30;99.90;;;;;;5046749;28;20481;-79
2021/03/21 05:16:24;;;;;;;11.13;10.23;;;2.30;99.90;;;;;;5059427;28;20439;-79
2021/03/21 05:18:56;;;;;;;11.10;10.17;;;2.30;99.90;;;;;;5058382;28;20437;-79
2021/03/21 05:21:27;;;;;;;12.17;11.10;;;2.20;99.90;;;;;;5057338;28;20430;-81
2021/03/21 05:23:59;;;;;;;11.57;10.57;;;2.30;99.90;;;;;;5053074;28;20951;-82
2021/03/21 05:26:33;;;;;;;11.37;10.23;;;2.20;99.90;;;;;;5044707;28;20610;-80
2021/03/21 05:29:30;;;;;;;11.60;10.50;;;2.20;99.90;;;;;;5055934;28;20453;-81
2021/03/21 05:31:56;;;;;;;10.97;10.07;;;2.20;99.90;;;;;;5040444;28;20454;-81
2021/03/21 05:34:23;;;;;;;11.60;10.50;;;2.20;99.90;;;;;;5043493;28;20999;-81
2021/03/21 05:36:57;;;;;;;11.23;10.23;;;2.20;99.90;;;;;;5037408;28;20452;-84
2021/03/21 05:39:34;;;;;;;10.30;9.50;;;2.30;99.90;;;;;;5055549;28;20462;-80
2021/03/21 05:42:29;;;;;;;11.30;10.30;;;2.30;99.90;;;;;;5043578;28;20515;-79
2021/03/21 05:45:20;;;;;;;11.80;10.70;;;2.30;99.90;;;;;;5045559;28;20515;-77
2021/03/21 05:48:12;;;;;;;10.97;10.07;;;2.30;99.90;;;;;;5043472;28;21045;-77
2021/03/21 05:51:13;;;;;;;10.47;9.53;;;2.30;99.90;;;;;;5047306;28;20499;-77
2021/03/21 05:54:26;;;;;;;11.27;10.23;;;2.40;99.90;;;;;;5044685;28;20503;-77
2021/03/21 05:57:21;;;;;;;10.47;9.60;;;2.40;99.90;;;;;;5043606;28;20455;-77
2021/03/21 06:00:09;;;;;;;10.67;9.77;;;2.40;99.90;;;;;;5045168;28;20458;-77
2021/03/21 06:03:05;;;;;;;11.00;10.00;;;2.40;99.90;;;;;;5039785;28;20457;-78
2021/03/21 06:06:09;;;;;;;10.80;9.80;;;2.40;99.90;;;;;;5050945;28;20436;-78
2021/03/21 06:08:48;;;;;;;10.23;9.23;;;2.40;99.90;;;;;;5043137;28;20484;-77
2021/03/21 06:11:40;;;;;;;10.47;9.60;;;2.40;99.90;;;;;;5040785;28;20990;-77
2021/03/21 06:14:49;;;;;;;10.33;9.40;;;2.50;99.90;;;;;;5050723;28;20438;-77
2021/03/21 06:17:40;;;;;;;11.03;10.20;;;2.50;99.90;;;;;;5043504;28;20847;-77
2021/03/21 06:20:47;;;;;;;10.43;9.53;;;2.50;99.90;;;;;;5051191;28;20863;-78
2021/03/21 06:23:32;;;;;;;10.67;9.87;;;2.60;99.90;;;;;;5042047;28;20446;-77
2021/03/21 06:26:04;;;;;;;12.00;10.97;;;2.60;99.90;;;;;;5045216;28;20506;-77
2021/03/21 06:28:59;;;;;;;11.47;10.37;;;2.60;99.90;;;;;;5048426;28;20453;-77
2021/03/21 06:32:04;;;;;;;10.83;9.93;;;2.60;99.90;;;;;;5033235;28;20879;-78
2021/03/21 06:34:39;;;;;;;10.83;9.97;;;2.70;99.90;;;;;;5040574;28;20449;-77
2021/03/21 06:37:28;;;;;;;10.90;9.93;;;2.70;99.90;;;;;;5037625;28;20498;-78
2021/03/21 06:40:22;;;;;;;10.73;9.83;;;2.70;99.90;;;;;;5073859;22;20496;-77
2021/03/21 06:43:05;;;;;;;11.03;10.10;;;2.80;99.90;;;;;;5070291;28;20444;-76
2021/03/21 06:46:02;;;;;;;10.13;9.33;;;2.80;99.90;;;;;;5072665;28;20454;-77
2021/03/21 06:49:19;;;;;;;10.20;9.37;;;2.90;99.90;;;;;;5103457;28;20463;-77
2021/03/21 06:51:53;;;;;;;10.83;9.93;;;2.90;99.90;;;;;;4989189;28;20464;-76
2021/03/21 06:54:30;;;;;;;10.77;9.87;;;2.90;99.90;;;;;;5038613;28;21020;-76
2021/03/21 06:57:45;;;;;;;10.67;9.87;;;2.90;99.90;;;;;;5052856;28;20446;-76
2021/03/21 07:00:47;;;;;;;10.30;9.40;;;2.90;99.90;;;;;;5077340;28;20460;-77
2021/03/21 07:03:52;;;;;;;10.10;9.20;;;3.00;99.90;;;;;;5053978;28;20475;-76
2021/03/21 07:06:55;;;;;;;9.93;9.13;;;3.00;99.90;;;;;;5053318;28;20468;-75
2021/03/21 07:09:49;;;;;;;9.87;8.97;;;3.00;99.90;;;;;;5050222;28;20454;-78
2021/03/21 07:12:31;;;;;;;9.70;8.90;;;3.10;99.90;;;;;;5044702;28;20454;-78
2021/03/21 07:15:40;;;;;;;11.30;9.70;;;3.10;99.90;;;;;;5043644;28;20437;-77
2021/03/21 07:18:59;;;;;;;10.30;9.37;;;3.10;99.90;;;;;;5050320;28;20430;-79
2021/03/21 07:22:01;;;;;;;10.33;9.43;;;3.10;99.90;;;;;;5039318;28;20459;-78
2021/03/21 07:24:53;;;;;;;10.10;9.30;;;3.10;99.90;;;;;;5068241;28;20456;-77
2021/03/21 07:27:56;;;;;;;9.73;8.90;;;3.10;99.90;;;;;;5052981;28;20477;-78
2021/03/21 07:30:35;;;;;;;10.60;9.80;;;3.10;99.90;;;;;;5053083;28;21021;-76
2021/03/21 07:33:35;;;;;;;10.40;9.47;;;3.10;99.90;;;;;;5053566;28;20828;-76
2021/03/21 07:36:26;;;;;;;11.00;10.10;;;3.10;99.90;;;;;;5048867;28;20454;-76
2021/03/21 07:39:25;;;;;;;9.93;9.03;;;3.10;99.90;;;;;;5052491;28;20437;-75
2021/03/21 07:42:12;;;;;;;9.90;9.00;;;3.20;99.90;;;;;;5048898;28;20499;-76
2021/03/21 07:45:18;;;;;;;9.70;8.90;;;3.20;99.90;;;;;;5048657;28;20444;-78
2021/03/21 07:48:13;;;;;;;10.17;9.27;;;3.30;99.90;;;;;;5024551;28;20949;-76
2021/03/21 07:50:59;;;;;;;9.93;9.00;;;3.30;99.90;;;;;;5050059;28;20462;-77
2021/03/21 07:53:31;;;;;;;9.90;9.10;;;3.30;99.90;;;;;;5051712;28;20444;-76
2021/03/21 07:56:05;;;;;;;10.00;9.00;;;3.30;99.90;;;;;;5048730;28;20455;-76
2021/03/21 07:58:38;;;;;;;9.93;9.13;;;3.40;99.90;;;;;;5050112;28;20462;-76
2021/03/21 08:01:05;;;;;;;10.00;9.20;;;3.40;99.90;;;;;;5053091;28;20474;-74
2021/03/21 08:03:46;;;;;;;10.00;9.10;;;3.40;99.90;;;;;;5052732;28;20440;-75
2021/03/21 08:06:23;;;;;;;10.37;9.37;;;3.50;99.90;;;;;;5049647;28;20437;-76
2021/03/21 08:08:56;;;;;;;10.40;9.60;;;3.50;99.90;;;;;;5046662;28;20439;-75
2021/03/21 08:11:27;;;;;;;9.87;9.07;;;3.50;99.90;;;;;;5083589;28;20453;-76
2021/03/21 08:14:01;;;;;;;9.63;8.93;;;3.50;99.90;;;;;;5052749;28;20518;-76
2021/03/21 08:16:42;;;;;;;10.13;9.13;;;3.40;99.90;;;;;;5048048;28;20465;-75
2021/03/21 08:19:13;;;;;;;9.97;9.07;;;3.50;99.90;;;;;;5042594;28;20433;-74
2021/03/21 08:21:40;;;;;;;10.30;9.30;;;3.50;99.90;;;;;;5045275;28;20893;-76
2021/03/21 08:24:14;;;;;;;10.37;9.20;;;3.50;99.90;;;;;;5047443;28;20536;-76
2021/03/21 08:26:42;;;;;;;9.60;8.80;;;3.50;99.90;;;;;;5044966;28;20459;-77
2021/03/21 08:29:11;;;;;;;9.83;8.93;;;3.60;99.90;;;;;;5050669;28;20465;-77
2021/03/21 08:31:40;;;;;;;9.80;9.00;;;3.60;99.90;;;;;;5060981;28;20593;-79
2021/03/21 08:34:33;;;;;;;10.23;9.23;;;3.60;99.90;;;;;;5052376;28;20441;-77
2021/03/21 08:37:03;;;;;;;10.20;9.33;;;3.60;99.90;;;;;;5067203;28;22427;-76
2021/03/21 08:39:36;;;;;;;9.60;8.83;;;3.60;99.90;;;;;;5044112;28;20468;-78
2021/03/21 08:42:04;;;;;;;9.67;8.87;;;3.60;99.90;;;;;;5050838;28;21050;-76
2021/03/21 08:44:35;;;;;;;9.83;9.03;;;3.70;99.90;;;;;;5051357;28;20520;-76
2021/03/21 08:47:03;;;;;;;9.97;9.17;;;3.70;99.90;;;;;;5039746;28;20477;-76
2021/03/21 08:49:35;;;;;;;10.20;9.30;;;3.70;99.90;;;;;;5054026;28;20538;-77
2021/03/21 08:52:02;;;;;;;9.67;8.87;;;3.80;99.90;;;;;;5032786;28;20452;-77
2021/03/21 08:54:33;;;;;;;9.83;9.03;;;3.80;99.90;;;;;;5065845;28;20862;-77
2021/03/21 08:57:04;;;;;;;9.77;8.97;;;3.80;99.90;;;;;;5047460;28;20457;-77
2021/03/21 08:59:35;;;;;;;10.00;9.13;;;3.80;99.90;;;;;;5051129;28;20449;-77
2021/03/21 09:02:11;;;;;;;10.10;9.23;;;3.90;99.90;;;;;;5050623;28;20449;-77
2021/03/21 09:04:41;;;;;;;10.30;9.50;;;4.00;99.90;;;;;;5077997;28;20449;-76
2021/03/21 09:07:24;;;;;;;9.93;9.13;;;4.00;99.90;;;;;;5050305;28;20472;-77
2021/03/21 09:10:24;;;;;;;9.77;8.97;;;4.00;99.90;;;;;;5047241;28;20507;-77
2021/03/21 09:12:55;;;;;;;10.10;9.40;;;4.10;99.90;;;;;;5062774;28;21008;-78
2021/03/21 09:15:43;;;;;;;10.57;9.57;;;4.20;99.90;;;;;;5051907;28;20988;-77
2021/03/21 09:18:23;;;;;;;11.03;10.23;;;4.30;99.90;;;;;;5050140;28;20454;-77
2021/03/21 09:21:07;;;;;;;10.20;9.40;;;4.50;99.90;;;;;;5050639;28;20518;-77
2021/03/21 09:23:42;;;;;;;9.60;8.80;;;4.70;99.90;;;;;;5049367;28;20438;-76
2021/03/21 09:26:38;;;;;;;9.77;8.97;;;4.90;99.90;;;;;;5067078;28;20454;-77
2021/03/21 09:29:32;;;;;;;9.90;9.10;;;5.20;99.90;;;;;;5002157;28;20216;-77
2021/03/21 09:32:06;;;;;;;12.00;9.40;;;5.30;99.90;;;;;;5049680;28;20298;-78
2021/03/21 09:34:49;;;;;;;10.37;9.57;;;5.30;99.90;;;;;;5046806;28;20245;-78
2021/03/21 09:37:20;;;;;;;11.03;10.13;;;5.30;99.90;;;;;;5042774;28;20192;-78
2021/03/21 09:39:57;;;;;;;10.20;9.40;;;5.20;99.90;;;;;;5042157;28;20224;-77
2021/03/21 09:42:24;;;;;;;10.50;9.50;;;5.20;99.90;;;;;;5038618;28;20270;-77
2021/03/21 09:44:51;;;;;;;9.90;9.10;;;5.20;99.90;;;;;;5038271;28;20219;-77
2021/03/21 09:47:35;;;;;;;9.30;8.50;;;5.20;99.90;;;;;;5043281;28;20298;-77
2021/03/21 09:50:46;;;;;;;10.73;9.93;;;5.10;99.90;;;;;;5043575;28;20269;-77
2021/03/21 09:53:50;;;;;;;10.80;9.90;;;5.10;99.90;;;;;;5047847;28;20587;-77
2021/03/21 09:56:23;;;;;;;9.90;9.10;;;5.10;99.90;;;;;;5043252;28;20452;-78
2021/03/21 09:58:52;;;;;;;9.63;8.90;;;5.00;99.90;;;;;;5049259;28;20195;-77
2021/03/21 10:01:27;;;;;;;9.20;8.50;;;5.10;99.90;;;;;;5050520;28;20223;-77
2021/03/21 10:04:00;;;;;;;9.50;8.80;;;5.10;99.90;;;;;;5081960;28;20599;-78
2021/03/21 10:06:32;;;;;;;9.70;8.90;;;5.10;99.90;;;;;;5055772;28;20290;-78
2021/03/21 10:09:07;;;;;;;9.40;8.70;;;5.10;99.90;;;;;;5051622;28;20187;-77
2021/03/21 10:11:37;;;;;;;9.40;8.70;;;5.10;99.90;;;;;;5080730;28;20444;-77
2021/03/21 10:14:48;;;;;;;9.27;8.57;;;5.10;99.90;;;;;;5055396;28;20249;-75
2021/03/21 10:17:43;;;;;;;9.80;8.97;;;5.00;99.90;;;;;;5057084;28;20694;-77
2021/03/21 10:20:10;;;;;;;10.30;9.47;;;5.10;99.90;;;;;;5058033;28;20469;-77
2021/03/21 10:22:51;;;;;;;9.80;8.90;;;5.10;99.90;;;;;;5055390;28;20545;-77
2021/03/21 10:25:58;;;;;;;8.77;7.97;;;5.30;99.90;;;;;;5062427;28;20188;-79
2021/03/21 10:28:44;;;;;;;9.00;8.40;;;5.30;99.90;;;;;;5061772;28;20473;-78
2021/03/21 10:31:38;;;;;;;9.23;8.53;;;5.30;99.90;;;;;;5059775;28;20222;-77
2021/03/21 10:34:34;;;;;;;8.77;8.03;;;5.40;99.90;;;;;;5057070;28;20197;-78
2021/03/21 10:37:01;;;;;;;9.97;9.17;;;5.40;99.90;;;;;;5057134;28;20191;-77
2021/03/21 10:39:54;;;;;;;9.53;8.73;;;5.40;99.90;;;;;;5052318;28;20227;-77
2021/03/21 10:42:39;;;;;;;9.77;8.97;;;5.40;99.90;;;;;;5054623;28;20555;-77
2021/03/21 10:45:09;;;;;;;10.07;9.13;;;5.60;99.90;;;;;;5051199;28;20226;-78
2021/03/21 10:47:47;;;;;;;10.37;9.37;;;5.70;99.90;;;;;;5047552;28;20350;-77
2021/03/21 10:50:43;;;;;;;9.63;8.90;;;5.80;99.90;;;;;;5054408;28;20241;-77
2021/03/21 10:53:20;;;;;;;9.70;9.00;;;5.90;99.90;;;;;;5046859;28;20451;-78
2021/03/21 10:56:02;;;;;;;7.17;6.53;;;6.00;99.90;;;;;;5057220;28;20191;-78
2021/03/21 10:58:42;;;;;;;10.93;9.97;;;6.00;99.90;;;;;;5050474;28;20204;-77
2021/03/21 11:01:25;;;;;;;10.77;9.73;;;6.10;99.90;;;;;;5054840;28;20247;-77
2021/03/21 11:04:21;;;;;;;7.63;6.93;;;6.00;99.90;;;;;;5056471;28;20209;-76
2021/03/21 11:06:51;;;;;;;9.40;8.67;;;6.10;99.90;;;;;;5044747;28;20255;-76
2021/03/21 11:09:21;;;;;;;10.47;9.53;;;6.30;99.90;;;;;;5052715;28;20267;-74
2021/03/21 11:11:49;;;;;;;10.80;9.90;;;6.40;99.90;;;;;;5052734;28;20242;-75
2021/03/21 11:14:22;;;;;;;9.50;8.77;;;6.50;99.90;;;;;;5054507;28;20383;-76
2021/03/21 11:16:52;;;;;;;6.73;5.40;;;6.80;99.90;;;;;;5055362;28;20200;-78
2021/03/21 11:19:20;;;;;;;9.57;8.77;;;7.10;99.90;;;;;;5054982;28;20616;-78
2021/03/21 11:21:46;;;;;;;10.70;9.80;;;7.30;99.90;;;;;;5051065;28;20197;-77
2021/03/21 11:24:25;;;;;;;10.47;9.67;;;7.30;99.90;;;;;;5054547;28;20219;-77
2021/03/21 11:26:52;;;;;;;9.73;9.03;;;7.40;99.90;;;;;;5047976;28;20694;-77
2021/03/21 11:29:27;;;;;;;6.97;6.30;;;7.60;99.90;;;;;;5052220;28;20248;-77
2021/03/21 11:32:00;;;;;;;4.70;4.00;;;7.50;99.90;;;;;;5050658;28;20204;-77
2021/03/21 11:34:31;;;;;;;8.37;4.90;;;7.50;99.90;;;;;;5053953;28;20717;-76
2021/03/21 11:37:05;;;;;;;5.43;4.20;;;7.50;99.90;;;;;;5051848;28;20266;-77
2021/03/21 11:39:39;;;;;;;6.13;4.30;;;7.60;99.90;;;;;;5052309;28;20231;-77
2021/03/21 11:42:22;;;;;;;5.60;4.17;;;7.70;99.90;;;;;;5053559;28;20675;-76
2021/03/21 11:44:50;;;;;;;9.60;8.83;;;7.80;99.90;;;;;;5050463;28;20659;-76
2021/03/21 11:47:28;;;;;;;6.37;4.40;;;7.80;99.90;;;;;;5052651;28;20203;-76
2021/03/21 11:49:56;;;;;;;4.90;4.13;;;7.90;99.90;;;;;;5053278;28;20272;-76
2021/03/21 11:52:23;;;;;;;7.80;6.50;;;7.80;99.90;;;;;;5051617;28;20206;-76
2021/03/21 11:54:51;;;;;;;5.20;4.00;;;7.70;99.90;;;;;;5051303;28;20205;-75
2021/03/21 11:57:30;;;;;;;7.13;4.93;;;7.80;99.90;;;;;;5051602;28;20199;-76
2021/03/21 12:00:14;;;;;;;7.57;6.87;;;8.00;99.90;;;;;;5046495;28;20237;-76
2021/03/21 12:02:51;;;;;;;6.93;6.23;;;8.00;99.90;;;;;;5049985;28;20191;-76
2021/03/21 12:05:21;;;;;;;6.57;4.50;;;8.10;99.90;;;;;;5052598;28;20211;-77
2021/03/21 12:07:48;;;;;;;5.90;4.30;;;8.00;99.90;;;;;;5053057;28;20587;-77
2021/03/21 12:10:30;;;;;;;7.87;4.60;;;8.10;99.90;;;;;;5051362;28;20221;-79
2021/03/21 12:12:57;;;;;;;9.83;8.93;;;8.00;99.90;;;;;;5049851;28;20194;-76
2021/03/21 12:15:38;;;;;;;11.03;10.03;;;8.10;99.90;;;;;;5052914;28;20195;-76
2021/03/21 12:18:07;;;;;;;9.80;9.00;;;8.10;99.90;;;;;;5051183;28;20191;-76
2021/03/21 12:20:45;;;;;;;10.13;9.33;;;7.90;99.90;;;;;;5064505;28;20702;-75
2021/03/21 12:23:41;;;;;;;10.37;9.43;;;7.80;99.90;;;;;;5052383;28;20199;-76
2021/03/21 12:26:15;;;;;;;10.00;9.20;;;7.70;99.90;;;;;;5045846;28;20199;-75
2021/03/21 12:28:50;;;;;;;11.83;10.93;;;7.50;99.90;;;;;;5049348;28;20231;-76
2021/03/21 12:31:22;;;;;;;10.30;9.43;;;7.60;99.90;;;;;;5049559;28;20237;-75
2021/03/21 12:33:50;;;;;;;10.40;9.30;;;7.60;99.90;;;;;;5047109;28;20199;-75
2021/03/21 12:36:21;;;;;;;10.10;9.20;;;7.60;99.90;;;;;;5045939;28;20206;-75
2021/03/21 12:38:52;;;;;;;9.77;8.97;;;7.60;99.90;;;;;;5050410;28;20205;-77
2021/03/21 12:41:29;;;;;;;10.50;9.63;;;7.60;99.90;;;;;;5053886;28;20236;-78
2021/03/21 12:44:22;;;;;;;10.20;9.30;;;7.70;99.90;;;;;;5053604;28;20199;-76
2021/03/21 12:46:52;;;;;;;10.70;9.70;;;7.70;99.90;;;;;;5052171;28;20212;-75
2021/03/21 12:49:41;;;;;;;10.37;9.50;;;7.60;99.90;;;;;;5050499;28;20226;-76
2021/03/21 12:52:10;;;;;;;10.30;9.40;;;7.60;99.90;;;;;;5063973;28;20656;-77
2021/03/21 12:54:38;;;;;;;9.93;9.13;;;7.50;99.90;;;;;;5062929;28;20205;-76
2021/03/21 12:57:10;;;;;;;11.77;10.73;;;7.50;99.90;;;;;;5046517;28;20190;-76
2021/03/21 12:59:37;;;;;;;11.83;10.73;;;7.50;99.90;;;;;;5050843;28;20263;-76
2021/03/21 13:02:04;;;;;;;11.20;10.20;;;7.50;99.90;;;;;;5051444;28;20194;-76
2021/03/21 13:04:31;;;;;;;12.63;11.43;;;7.50;99.90;;;;;;5050697;28;20201;-76
2021/03/21 13:06:57;;;;;;;11.60;10.50;;;7.40;99.90;;;;;;5047227;28;20228;-76
2021/03/21 13:09:24;;;;;;;11.90;10.80;;;7.40;99.90;;;;;;5042483;28;20228;-76
2021/03/21 13:11:50;;;;;;;11.63;10.53;;;7.40;99.90;;;;;;5050871;28;20692;-76
2021/03/21 13:14:17;;;;;;;12.13;10.50;;;7.40;99.90;;;;;;5044075;28;20260;-78
2021/03/21 13:16:43;;;;;;;11.33;10.33;;;7.60;99.90;;;;;;5051253;28;20205;-76
2021/03/21 13:19:10;;;;;;;12.00;10.90;;;7.80;99.90;;;;;;5051443;28;20245;-76
2021/03/21 13:21:37;;;;;;;12.13;10.93;;;8.00;99.90;;;;;;5053098;28;20225;-76
2021/03/21 13:24:04;;;;;;;11.20;10.17;;;8.00;99.90;;;;;;5047663;28;20202;-76
2021/03/21 13:26:30;;;;;;;10.77;9.77;;;8.00;99.90;;;;;;5049221;28;20212;-76
2021/03/21 13:28:56;;;;;;;10.60;9.57;;;8.00;99.90;;;;;;5050232;28;20222;-76
2021/03/21 13:31:23;;;;;;;10.50;9.47;;;7.80;99.90;;;;;;5048539;28;20205;-76
2021/03/21 13:33:49;;;;;;;10.57;9.67;;;7.70;99.90;;;;;;5051314;28;20204;-76